sensor_id;sensor_type;location;lat;lon;timestamp;P1;durP1;ratioP1;P2;durP2;ratioP2
51862;SDS011;37900;52.996;6.278;2022-08-20T00:00:41;2.70;;;2.30;;
51862;SDS011;37900;52.996;6.278;2022-08-20T00:05:41;2.40;;;2.20;;
51862;SDS011;37900;52.996;6.278;2022-08-20T00:08:10;2.40;;;2.20;;
51862;SDS011;37900;52.996;6.278;2022-08-20T00:10:36;3.00;;;2.70;;
51862;SDS011;37900;52.996;6.278;2022-08-20T00:13:05;2.47;;;2.28;;
51862;SDS011;37900;52.996;6.278;2022-08-20T00:15:33;2.67;;;2.47;;
51862;SDS011;37900;52.996;6.278;2022-08-20T00:18:01;2.70;;;2.40;;
51862;SDS011;37900;52.996;6.278;2022-08-20T00:20:29;2.40;;;2.20;;
51862;SDS011;37900;52.996;6.278;2022-08-20T00:22:57;2.78;;;2.33;;
51862;SDS011;37900;52.996;6.278;2022-08-20T00:25:23;2.67;;;2.38;;
51862;SDS011;37900;52.996;6.278;2022-08-20T00:27:50;2.25;;;2.00;;
51862;SDS011;37900;52.996;6.278;2022-08-20T00:30:16;2.40;;;2.20;;
51862;SDS011;37900;52.996;6.278;2022-08-20T00:32:46;3.17;;;2.50;;
51862;SDS011;37900;52.996;6.278;2022-08-20T00:35:18;2.40;;;2.20;;
51862;SDS011;37900;52.996;6.278;2022-08-20T00:37:45;2.63;;;2.38;;
51862;SDS011;37900;52.996;6.278;2022-08-20T00:40:12;2.90;;;2.33;;
51862;SDS011;37900;52.996;6.278;2022-08-20T00:42:49;2.38;;;1.95;;
51862;SDS011;37900;52.996;6.278;2022-08-20T00:45:25;2.50;;;2.30;;
51862;SDS011;37900;52.996;6.278;2022-08-20T00:47:53;2.25;;;2.05;;
51862;SDS011;37900;52.996;6.278;2022-08-20T00:50:21;2.50;;;2.30;;
51862;SDS011;37900;52.996;6.278;2022-08-20T00:52:50;2.60;;;2.20;;
51862;SDS011;37900;52.996;6.278;2022-08-20T00:57:52;2.30;;;2.10;;
51862;SDS011;37900;52.996;6.278;2022-08-20T01:00:26;2.80;;;2.30;;
51862;SDS011;37900;52.996;6.278;2022-08-20T01:03:05;3.30;;;2.40;;
51862;SDS011;37900;52.996;6.278;2022-08-20T01:05:34;2.00;;;1.80;;
51862;SDS011;37900;52.996;6.278;2022-08-20T01:08:00;2.60;;;2.40;;
51862;SDS011;37900;52.996;6.278;2022-08-20T01:10:28;2.38;;;2.17;;
51862;SDS011;37900;52.996;6.278;2022-08-20T01:12:58;2.35;;;1.90;;
51862;SDS011;37900;52.996;6.278;2022-08-20T01:15:28;2.40;;;2.15;;
51862;SDS011;37900;52.996;6.278;2022-08-20T01:17:56;2.50;;;2.30;;
51862;SDS011;37900;52.996;6.278;2022-08-20T01:20:24;2.30;;;2.00;;
51862;SDS011;37900;52.996;6.278;2022-08-20T01:31:29;2.35;;;2.15;;
51862;SDS011;37900;52.996;6.278;2022-08-20T01:33:58;2.50;;;2.30;;
51862;SDS011;37900;52.996;6.278;2022-08-20T01:36:27;2.22;;;1.88;;
51862;SDS011;37900;52.996;6.278;2022-08-20T01:38:59;2.22;;;2.03;;
51862;SDS011;37900;52.996;6.278;2022-08-20T01:44:29;2.47;;;2.15;;
51862;SDS011;37900;52.996;6.278;2022-08-20T01:46:56;2.15;;;1.90;;
51862;SDS011;37900;52.996;6.278;2022-08-20T01:49:32;2.92;;;2.10;;
51862;SDS011;37900;52.996;6.278;2022-08-20T01:52:00;2.30;;;2.10;;
51862;SDS011;37900;52.996;6.278;2022-08-20T01:54:31;2.50;;;2.17;;
51862;SDS011;37900;52.996;6.278;2022-08-20T01:59:30;2.97;;;2.42;;
51862;SDS011;37900;52.996;6.278;2022-08-20T02:01:56;2.58;;;2.17;;
51862;SDS011;37900;52.996;6.278;2022-08-20T02:04:23;2.55;;;2.30;;
51862;SDS011;37900;52.996;6.278;2022-08-20T02:06:53;2.25;;;2.05;;
51862;SDS011;37900;52.996;6.278;2022-08-20T02:09:21;2.30;;;2.10;;
51862;SDS011;37900;52.996;6.278;2022-08-20T02:11:48;2.20;;;2.00;;
51862;SDS011;37900;52.996;6.278;2022-08-20T02:14:14;2.47;;;2.10;;
51862;SDS011;37900;52.996;6.278;2022-08-20T02:16:41;2.25;;;2.05;;
51862;SDS011;37900;52.996;6.278;2022-08-20T02:21:38;2.00;;;1.80;;
51862;SDS011;37900;52.996;6.278;2022-08-20T02:24:20;2.05;;;1.85;;
51862;SDS011;37900;52.996;6.278;2022-08-20T02:26:46;2.22;;;2.03;;
51862;SDS011;37900;52.996;6.278;2022-08-20T02:29:13;1.97;;;1.77;;
51862;SDS011;37900;52.996;6.278;2022-08-20T02:31:40;2.10;;;1.90;;
51862;SDS011;37900;52.996;6.278;2022-08-20T02:34:08;2.40;;;2.20;;
51862;SDS011;37900;52.996;6.278;2022-08-20T02:36:36;2.15;;;1.95;;
51862;SDS011;37900;52.996;6.278;2022-08-20T02:41:32;2.42;;;2.17;;
51862;SDS011;37900;52.996;6.278;2022-08-20T02:46:24;2.28;;;2.08;;
51862;SDS011;37900;52.996;6.278;2022-08-20T02:48:52;2.42;;;1.90;;
51862;SDS011;37900;52.996;6.278;2022-08-20T02:51:21;3.05;;;2.15;;
51862;SDS011;37900;52.996;6.278;2022-08-20T02:53:47;2.23;;;2.03;;
51862;SDS011;37900;52.996;6.278;2022-08-20T02:56:13;2.95;;;2.47;;
51862;SDS011;37900;52.996;6.278;2022-08-20T02:58:39;2.10;;;1.85;;
51862;SDS011;37900;52.996;6.278;2022-08-20T03:01:07;3.15;;;2.15;;
51862;SDS011;37900;52.996;6.278;2022-08-20T03:03:37;2.42;;;1.90;;
51862;SDS011;37900;52.996;6.278;2022-08-20T03:06:03;2.38;;;2.00;;
51862;SDS011;37900;52.996;6.278;2022-08-20T03:08:29;2.28;;;2.03;;
51862;SDS011;37900;52.996;6.278;2022-08-20T03:10:55;2.10;;;1.90;;
51862;SDS011;37900;52.996;6.278;2022-08-20T03:13:21;3.45;;;2.30;;
51862;SDS011;37900;52.996;6.278;2022-08-20T03:15:49;2.53;;;1.98;;
51862;SDS011;37900;52.996;6.278;2022-08-20T03:18:18;2.45;;;2.00;;
51862;SDS011;37900;52.996;6.278;2022-08-20T03:20:45;2.95;;;2.05;;
51862;SDS011;37900;52.996;6.278;2022-08-20T03:23:12;2.50;;;2.30;;
51862;SDS011;37900;52.996;6.278;2022-08-20T03:25:39;2.50;;;2.08;;
51862;SDS011;37900;52.996;6.278;2022-08-20T03:28:05;2.65;;;1.95;;
51862;SDS011;37900;52.996;6.278;2022-08-20T03:30:30;2.35;;;2.15;;
51862;SDS011;37900;52.996;6.278;2022-08-20T03:32:56;2.30;;;1.83;;
51862;SDS011;37900;52.996;6.278;2022-08-20T03:35:23;2.05;;;1.85;;
51862;SDS011;37900;52.996;6.278;2022-08-20T03:37:52;2.97;;;2.42;;
51862;SDS011;37900;52.996;6.278;2022-08-20T03:40:26;2.28;;;2.00;;
51862;SDS011;37900;52.996;6.278;2022-08-20T03:42:54;2.30;;;2.10;;
51862;SDS011;37900;52.996;6.278;2022-08-20T03:45:21;2.20;;;2.00;;
51862;SDS011;37900;52.996;6.278;2022-08-20T03:47:48;2.33;;;1.88;;
51862;SDS011;37900;52.996;6.278;2022-08-20T03:50:17;2.33;;;1.83;;
51862;SDS011;37900;52.996;6.278;2022-08-20T03:52:44;2.28;;;1.90;;
51862;SDS011;37900;52.996;6.278;2022-08-20T03:55:10;2.80;;;1.90;;
51862;SDS011;37900;52.996;6.278;2022-08-20T03:57:43;2.90;;;2.30;;
51862;SDS011;37900;52.996;6.278;2022-08-20T04:00:20;2.42;;;1.92;;
51862;SDS011;37900;52.996;6.278;2022-08-20T04:02:48;2.40;;;2.05;;
51862;SDS011;37900;52.996;6.278;2022-08-20T04:05:14;2.25;;;1.88;;
51862;SDS011;37900;52.996;6.278;2022-08-20T04:07:39;2.08;;;1.85;;
51862;SDS011;37900;52.996;6.278;2022-08-20T04:10:07;2.30;;;1.98;;
51862;SDS011;37900;52.996;6.278;2022-08-20T04:12:35;2.28;;;1.77;;
51862;SDS011;37900;52.996;6.278;2022-08-20T04:15:05;2.10;;;1.90;;
51862;SDS011;37900;52.996;6.278;2022-08-20T04:17:37;1.90;;;1.60;;
51862;SDS011;37900;52.996;6.278;2022-08-20T04:20:07;2.20;;;2.00;;
51862;SDS011;37900;52.996;6.278;2022-08-20T04:22:34;2.35;;;2.15;;
51862;SDS011;37900;52.996;6.278;2022-08-20T04:25:01;2.00;;;1.80;;
51862;SDS011;37900;52.996;6.278;2022-08-20T04:27:29;2.80;;;2.17;;
51862;SDS011;37900;52.996;6.278;2022-08-20T04:29:57;2.25;;;1.73;;
51862;SDS011;37900;52.996;6.278;2022-08-20T04:32:24;1.92;;;1.73;;
51862;SDS011;37900;52.996;6.278;2022-08-20T04:34:50;1.88;;;1.67;;
51862;SDS011;37900;52.996;6.278;2022-08-20T04:37:19;1.90;;;1.70;;
51862;SDS011;37900;52.996;6.278;2022-08-20T04:39:46;2.05;;;1.70;;
51862;SDS011;37900;52.996;6.278;2022-08-20T04:42:33;2.38;;;1.67;;
51862;SDS011;37900;52.996;6.278;2022-08-20T04:45:00;1.70;;;1.60;;
51862;SDS011;37900;52.996;6.278;2022-08-20T04:47:26;2.55;;;1.90;;
51862;SDS011;37900;52.996;6.278;2022-08-20T04:49:52;2.60;;;1.70;;
51862;SDS011;37900;52.996;6.278;2022-08-20T04:52:17;3.05;;;1.80;;
51862;SDS011;37900;52.996;6.278;2022-08-20T04:54:43;2.60;;;2.30;;
51862;SDS011;37900;52.996;6.278;2022-08-20T04:57:10;1.80;;;1.70;;
51862;SDS011;37900;52.996;6.278;2022-08-20T04:59:36;2.17;;;1.75;;
51862;SDS011;37900;52.996;6.278;2022-08-20T05:02:03;2.15;;;1.85;;
51862;SDS011;37900;52.996;6.278;2022-08-20T05:04:29;2.33;;;2.03;;
51862;SDS011;37900;52.996;6.278;2022-08-20T05:06:55;3.10;;;1.90;;
51862;SDS011;37900;52.996;6.278;2022-08-20T05:09:20;2.58;;;1.90;;
51862;SDS011;37900;52.996;6.278;2022-08-20T05:11:46;2.35;;;1.80;;
51862;SDS011;37900;52.996;6.278;2022-08-20T05:14:12;2.25;;;1.95;;
51862;SDS011;37900;52.996;6.278;2022-08-20T05:16:39;2.23;;;1.80;;
51862;SDS011;37900;52.996;6.278;2022-08-20T05:19:06;2.40;;;1.67;;
51862;SDS011;37900;52.996;6.278;2022-08-20T05:21:33;2.17;;;1.90;;
51862;SDS011;37900;52.996;6.278;2022-08-20T05:23:59;1.98;;;1.75;;
51862;SDS011;37900;52.996;6.278;2022-08-20T05:26:26;2.42;;;2.05;;
51862;SDS011;37900;52.996;6.278;2022-08-20T05:28:52;2.40;;;1.67;;
51862;SDS011;37900;52.996;6.278;2022-08-20T05:31:18;2.33;;;1.88;;
51862;SDS011;37900;52.996;6.278;2022-08-20T05:33:44;2.03;;;1.70;;
51862;SDS011;37900;52.996;6.278;2022-08-20T05:36:10;1.90;;;1.70;;
51862;SDS011;37900;52.996;6.278;2022-08-20T05:38:36;2.63;;;1.80;;
51862;SDS011;37900;52.996;6.278;2022-08-20T05:41:02;2.03;;;1.83;;
51862;SDS011;37900;52.996;6.278;2022-08-20T05:43:28;1.55;;;1.45;;
51862;SDS011;37900;52.996;6.278;2022-08-20T05:45:54;1.90;;;1.70;;
51862;SDS011;37900;52.996;6.278;2022-08-20T05:48:23;2.42;;;1.60;;
51862;SDS011;37900;52.996;6.278;2022-08-20T05:50:50;2.47;;;1.75;;
51862;SDS011;37900;52.996;6.278;2022-08-20T05:53:18;2.17;;;1.80;;
51862;SDS011;37900;52.996;6.278;2022-08-20T05:55:46;3.05;;;2.00;;
51862;SDS011;37900;52.996;6.278;2022-08-20T05:58:14;2.22;;;1.90;;
51862;SDS011;37900;52.996;6.278;2022-08-20T06:00:42;3.50;;;2.10;;
51862;SDS011;37900;52.996;6.278;2022-08-20T06:03:08;2.72;;;1.95;;
51862;SDS011;37900;52.996;6.278;2022-08-20T06:05:53;3.28;;;2.30;;
51862;SDS011;37900;52.996;6.278;2022-08-20T06:08:18;2.00;;;1.70;;
51862;SDS011;37900;52.996;6.278;2022-08-20T06:10:44;3.25;;;1.90;;
51862;SDS011;37900;52.996;6.278;2022-08-20T06:13:10;3.55;;;2.20;;
51862;SDS011;37900;52.996;6.278;2022-08-20T06:15:36;2.47;;;1.90;;
51862;SDS011;37900;52.996;6.278;2022-08-20T06:20:36;3.25;;;1.90;;
51862;SDS011;37900;52.996;6.278;2022-08-20T06:23:02;3.67;;;2.05;;
51862;SDS011;37900;52.996;6.278;2022-08-20T06:25:29;2.08;;;1.88;;
51862;SDS011;37900;52.996;6.278;2022-08-20T06:27:55;2.58;;;1.80;;
51862;SDS011;37900;52.996;6.278;2022-08-20T06:30:21;2.47;;;1.90;;
51862;SDS011;37900;52.996;6.278;2022-08-20T06:32:46;4.43;;;2.10;;
51862;SDS011;37900;52.996;6.278;2022-08-20T06:35:14;1.50;;;1.40;;
51862;SDS011;37900;52.996;6.278;2022-08-20T06:37:40;2.40;;;1.70;;
51862;SDS011;37900;52.996;6.278;2022-08-20T06:40:17;3.00;;;2.17;;
51862;SDS011;37900;52.996;6.278;2022-08-20T06:42:44;1.83;;;1.55;;
51862;SDS011;37900;52.996;6.278;2022-08-20T06:45:11;3.33;;;1.83;;
51862;SDS011;37900;52.996;6.278;2022-08-20T06:47:41;2.35;;;1.60;;
51862;SDS011;37900;52.996;6.278;2022-08-20T06:50:12;2.88;;;1.60;;
51862;SDS011;37900;52.996;6.278;2022-08-20T06:52:42;1.52;;;1.40;;
51862;SDS011;37900;52.996;6.278;2022-08-20T06:55:09;3.42;;;1.67;;
51862;SDS011;37900;52.996;6.278;2022-08-20T06:57:35;3.63;;;2.10;;
51862;SDS011;37900;52.996;6.278;2022-08-20T07:00:04;3.72;;;1.83;;
51862;SDS011;37900;52.996;6.278;2022-08-20T07:02:32;2.00;;;1.48;;
51862;SDS011;37900;52.996;6.278;2022-08-20T07:04:59;2.13;;;1.75;;
51862;SDS011;37900;52.996;6.278;2022-08-20T07:07:25;2.60;;;1.67;;
51862;SDS011;37900;52.996;6.278;2022-08-20T07:09:57;2.53;;;1.70;;
51862;SDS011;37900;52.996;6.278;2022-08-20T07:12:24;2.20;;;1.60;;
51862;SDS011;37900;52.996;6.278;2022-08-20T07:14:50;2.70;;;1.90;;
51862;SDS011;37900;52.996;6.278;2022-08-20T07:17:16;2.00;;;1.52;;
51862;SDS011;37900;52.996;6.278;2022-08-20T07:19:42;2.58;;;1.70;;
51862;SDS011;37900;52.996;6.278;2022-08-20T07:22:07;3.00;;;1.60;;
51862;SDS011;37900;52.996;6.278;2022-08-20T07:24:33;2.65;;;1.80;;
51862;SDS011;37900;52.996;6.278;2022-08-20T07:26:58;2.15;;;1.60;;
51862;SDS011;37900;52.996;6.278;2022-08-20T07:29:25;2.50;;;1.63;;
51862;SDS011;37900;52.996;6.278;2022-08-20T07:32:10;2.20;;;1.52;;
51862;SDS011;37900;52.996;6.278;2022-08-20T07:34:54;1.67;;;1.42;;
51862;SDS011;37900;52.996;6.278;2022-08-20T07:37:20;2.10;;;1.40;;
51862;SDS011;37900;52.996;6.278;2022-08-20T07:42:13;1.88;;;1.40;;
51862;SDS011;37900;52.996;6.278;2022-08-20T07:44:39;2.53;;;1.48;;
51862;SDS011;37900;52.996;6.278;2022-08-20T07:47:05;2.03;;;1.70;;
51862;SDS011;37900;52.996;6.278;2022-08-20T07:49:30;2.35;;;1.58;;
51862;SDS011;37900;52.996;6.278;2022-08-20T07:51:56;1.88;;;1.30;;
51862;SDS011;37900;52.996;6.278;2022-08-20T07:54:22;1.90;;;1.40;;
51862;SDS011;37900;52.996;6.278;2022-08-20T07:56:48;2.47;;;1.67;;
51862;SDS011;37900;52.996;6.278;2022-08-20T07:59:14;2.15;;;1.35;;
51862;SDS011;37900;52.996;6.278;2022-08-20T08:01:39;2.15;;;1.77;;
51862;SDS011;37900;52.996;6.278;2022-08-20T08:04:05;2.50;;;1.50;;
51862;SDS011;37900;52.996;6.278;2022-08-20T08:06:31;1.45;;;1.25;;
51862;SDS011;37900;52.996;6.278;2022-08-20T08:09:05;2.25;;;1.58;;
51862;SDS011;37900;52.996;6.278;2022-08-20T08:11:34;2.35;;;1.58;;
51862;SDS011;37900;52.996;6.278;2022-08-20T08:14:02;2.13;;;1.33;;
51862;SDS011;37900;52.996;6.278;2022-08-20T08:16:30;2.97;;;1.42;;
51862;SDS011;37900;52.996;6.278;2022-08-20T08:18:58;3.17;;;1.42;;
51862;SDS011;37900;52.996;6.278;2022-08-20T08:21:25;2.00;;;1.50;;
51862;SDS011;37900;52.996;6.278;2022-08-20T08:23:50;2.05;;;1.40;;
51862;SDS011;37900;52.996;6.278;2022-08-20T08:26:17;3.65;;;1.70;;
51862;SDS011;37900;52.996;6.278;2022-08-20T08:28:43;2.35;;;1.67;;
51862;SDS011;37900;52.996;6.278;2022-08-20T08:31:09;1.60;;;1.30;;
51862;SDS011;37900;52.996;6.278;2022-08-20T08:33:35;2.60;;;1.35;;
51862;SDS011;37900;52.996;6.278;2022-08-20T08:38:32;1.90;;;1.35;;
51862;SDS011;37900;52.996;6.278;2022-08-20T08:41:02;1.50;;;1.23;;
51862;SDS011;37900;52.996;6.278;2022-08-20T08:43:48;2.38;;;1.30;;
51862;SDS011;37900;52.996;6.278;2022-08-20T08:46:19;1.38;;;1.27;;
51862;SDS011;37900;52.996;6.278;2022-08-20T08:48:49;3.55;;;1.25;;
51862;SDS011;37900;52.996;6.278;2022-08-20T08:51:41;3.40;;;1.73;;
51862;SDS011;37900;52.996;6.278;2022-08-20T08:54:06;1.33;;;1.20;;
51862;SDS011;37900;52.996;6.278;2022-08-20T08:56:34;1.92;;;1.20;;
51862;SDS011;37900;52.996;6.278;2022-08-20T08:59:04;1.77;;;1.13;;
51862;SDS011;37900;52.996;6.278;2022-08-20T09:01:39;1.88;;;1.38;;
51862;SDS011;37900;52.996;6.278;2022-08-20T09:04:11;2.10;;;1.20;;
51862;SDS011;37900;52.996;6.278;2022-08-20T09:06:38;3.17;;;1.67;;
51862;SDS011;37900;52.996;6.278;2022-08-20T09:09:10;2.38;;;1.23;;
51862;SDS011;37900;52.996;6.278;2022-08-20T09:11:49;1.88;;;1.33;;
51862;SDS011;37900;52.996;6.278;2022-08-20T09:14:17;2.53;;;1.38;;
51862;SDS011;37900;52.996;6.278;2022-08-20T09:16:43;1.85;;;1.38;;
51862;SDS011;37900;52.996;6.278;2022-08-20T09:19:09;2.95;;;1.58;;
51862;SDS011;37900;52.996;6.278;2022-08-20T09:21:34;1.95;;;1.63;;
51862;SDS011;37900;52.996;6.278;2022-08-20T09:24:00;2.60;;;1.58;;
51862;SDS011;37900;52.996;6.278;2022-08-20T09:26:26;3.80;;;1.40;;
51862;SDS011;37900;52.996;6.278;2022-08-20T09:28:52;3.22;;;1.60;;
51862;SDS011;37900;52.996;6.278;2022-08-20T09:31:18;3.03;;;1.50;;
51862;SDS011;37900;52.996;6.278;2022-08-20T09:33:43;2.38;;;1.20;;
51862;SDS011;37900;52.996;6.278;2022-08-20T09:36:09;2.75;;;1.40;;
51862;SDS011;37900;52.996;6.278;2022-08-20T09:38:35;1.77;;;1.50;;
51862;SDS011;37900;52.996;6.278;2022-08-20T09:41:00;3.30;;;1.27;;
51862;SDS011;37900;52.996;6.278;2022-08-20T09:43:26;3.42;;;1.10;;
51862;SDS011;37900;52.996;6.278;2022-08-20T09:45:52;3.05;;;1.65;;
51862;SDS011;37900;52.996;6.278;2022-08-20T09:48:18;1.80;;;1.20;;
51862;SDS011;37900;52.996;6.278;2022-08-20T09:50:45;2.75;;;1.20;;
51862;SDS011;37900;52.996;6.278;2022-08-20T09:53:12;2.55;;;1.50;;
51862;SDS011;37900;52.996;6.278;2022-08-20T10:00:43;4.38;;;1.48;;
51862;SDS011;37900;52.996;6.278;2022-08-20T10:03:09;3.30;;;1.60;;
51862;SDS011;37900;52.996;6.278;2022-08-20T10:05:34;1.83;;;1.40;;
51862;SDS011;37900;52.996;6.278;2022-08-20T10:08:03;3.15;;;1.50;;
51862;SDS011;37900;52.996;6.278;2022-08-20T10:10:30;1.92;;;1.23;;
51862;SDS011;37900;52.996;6.278;2022-08-20T10:12:56;3.15;;;1.73;;
51862;SDS011;37900;52.996;6.278;2022-08-20T10:15:22;2.95;;;1.40;;
51862;SDS011;37900;52.996;6.278;2022-08-20T10:17:47;1.85;;;1.30;;
51862;SDS011;37900;52.996;6.278;2022-08-20T10:20:13;2.80;;;1.23;;
51862;SDS011;37900;52.996;6.278;2022-08-20T10:22:39;2.15;;;1.20;;
51862;SDS011;37900;52.996;6.278;2022-08-20T10:25:05;2.13;;;1.42;;
51862;SDS011;37900;52.996;6.278;2022-08-20T10:27:31;2.83;;;1.40;;
51862;SDS011;37900;52.996;6.278;2022-08-20T10:29:58;2.90;;;1.20;;
51862;SDS011;37900;52.996;6.278;2022-08-20T10:32:23;3.13;;;1.75;;
51862;SDS011;37900;52.996;6.278;2022-08-20T10:34:49;3.80;;;1.58;;
51862;SDS011;37900;52.996;6.278;2022-08-20T10:37:15;1.80;;;1.40;;
51862;SDS011;37900;52.996;6.278;2022-08-20T10:39:43;2.60;;;1.60;;
51862;SDS011;37900;52.996;6.278;2022-08-20T10:42:09;2.10;;;1.17;;
51862;SDS011;37900;52.996;6.278;2022-08-20T10:44:35;2.47;;;1.40;;
51862;SDS011;37900;52.996;6.278;2022-08-20T10:49:48;1.88;;;1.30;;
51862;SDS011;37900;52.996;6.278;2022-08-20T10:52:16;2.20;;;1.52;;
51862;SDS011;37900;52.996;6.278;2022-08-20T10:54:42;1.83;;;1.20;;
51862;SDS011;37900;52.996;6.278;2022-08-20T10:57:11;2.95;;;1.60;;
51862;SDS011;37900;52.996;6.278;2022-08-20T10:59:43;1.52;;;1.38;;
51862;SDS011;37900;52.996;6.278;2022-08-20T11:02:10;2.70;;;1.27;;
51862;SDS011;37900;52.996;6.278;2022-08-20T11:04:37;3.27;;;1.73;;
51862;SDS011;37900;52.996;6.278;2022-08-20T11:07:15;2.65;;;1.65;;
51862;SDS011;37900;52.996;6.278;2022-08-20T11:09:43;1.77;;;1.00;;
51862;SDS011;37900;52.996;6.278;2022-08-20T11:12:10;3.38;;;1.55;;
51862;SDS011;37900;52.996;6.278;2022-08-20T11:14:36;2.08;;;1.48;;
51862;SDS011;37900;52.996;6.278;2022-08-20T11:17:02;2.10;;;1.35;;
51862;SDS011;37900;52.996;6.278;2022-08-20T11:19:29;3.45;;;1.40;;
51862;SDS011;37900;52.996;6.278;2022-08-20T11:21:55;3.97;;;1.58;;
51862;SDS011;37900;52.996;6.278;2022-08-20T11:24:21;2.78;;;1.23;;
51862;SDS011;37900;52.996;6.278;2022-08-20T11:26:47;1.63;;;1.20;;
51862;SDS011;37900;52.996;6.278;2022-08-20T11:29:14;3.78;;;1.55;;
51862;SDS011;37900;52.996;6.278;2022-08-20T11:31:41;2.28;;;2.08;;
51862;SDS011;37900;52.996;6.278;2022-08-20T11:34:07;1.38;;;1.15;;
51862;SDS011;37900;52.996;6.278;2022-08-20T11:36:33;3.15;;;1.17;;
51862;SDS011;37900;52.996;6.278;2022-08-20T11:38:59;1.88;;;1.17;;
51862;SDS011;37900;52.996;6.278;2022-08-20T11:41:25;1.83;;;1.17;;
51862;SDS011;37900;52.996;6.278;2022-08-20T11:43:50;2.05;;;1.20;;
51862;SDS011;37900;52.996;6.278;2022-08-20T11:46:16;3.47;;;1.90;;
51862;SDS011;37900;52.996;6.278;2022-08-20T11:48:42;1.80;;;1.25;;
51862;SDS011;37900;52.996;6.278;2022-08-20T11:51:07;2.30;;;1.42;;
51862;SDS011;37900;52.996;6.278;2022-08-20T11:53:33;1.65;;;1.10;;
51862;SDS011;37900;52.996;6.278;2022-08-20T11:55:59;3.10;;;1.90;;
51862;SDS011;37900;52.996;6.278;2022-08-20T11:58:25;4.68;;;2.80;;
51862;SDS011;37900;52.996;6.278;2022-08-20T12:00:50;2.25;;;1.58;;
51862;SDS011;37900;52.996;6.278;2022-08-20T12:03:16;3.83;;;1.70;;
51862;SDS011;37900;52.996;6.278;2022-08-20T12:05:42;2.42;;;1.40;;
51862;SDS011;37900;52.996;6.278;2022-08-20T12:08:10;4.05;;;1.45;;
51862;SDS011;37900;52.996;6.278;2022-08-20T12:10:37;4.60;;;2.13;;
51862;SDS011;37900;52.996;6.278;2022-08-20T12:13:03;2.58;;;1.75;;
51862;SDS011;37900;52.996;6.278;2022-08-20T12:15:30;3.78;;;1.88;;
51862;SDS011;37900;52.996;6.278;2022-08-20T12:17:56;2.60;;;1.40;;
51862;SDS011;37900;52.996;6.278;2022-08-20T12:20:22;2.75;;;1.45;;
51862;SDS011;37900;52.996;6.278;2022-08-20T12:22:48;3.43;;;1.50;;
51862;SDS011;37900;52.996;6.278;2022-08-20T12:25:14;2.50;;;1.50;;
51862;SDS011;37900;52.996;6.278;2022-08-20T12:27:40;4.43;;;1.48;;
51862;SDS011;37900;52.996;6.278;2022-08-20T12:30:07;2.00;;;1.15;;
51862;SDS011;37900;52.996;6.278;2022-08-20T12:32:37;3.15;;;1.40;;
51862;SDS011;37900;52.996;6.278;2022-08-20T12:35:04;2.92;;;1.65;;
51862;SDS011;37900;52.996;6.278;2022-08-20T12:37:31;2.20;;;1.48;;
51862;SDS011;37900;52.996;6.278;2022-08-20T12:39:58;2.15;;;1.20;;
51862;SDS011;37900;52.996;6.278;2022-08-20T12:42:25;2.80;;;1.70;;
51862;SDS011;37900;52.996;6.278;2022-08-20T12:44:53;3.00;;;1.55;;
51862;SDS011;37900;52.996;6.278;2022-08-20T12:47:23;1.67;;;1.35;;
51862;SDS011;37900;52.996;6.278;2022-08-20T12:49:50;2.80;;;1.65;;
51862;SDS011;37900;52.996;6.278;2022-08-20T12:52:21;1.90;;;1.70;;
51862;SDS011;37900;52.996;6.278;2022-08-20T12:54:48;2.38;;;1.42;;
51862;SDS011;37900;52.996;6.278;2022-08-20T12:57:15;5.00;;;1.63;;
51862;SDS011;37900;52.996;6.278;2022-08-20T12:59:46;2.38;;;1.27;;
51862;SDS011;37900;52.996;6.278;2022-08-20T13:02:12;4.38;;;1.80;;
51862;SDS011;37900;52.996;6.278;2022-08-20T13:04:38;3.97;;;1.88;;
51862;SDS011;37900;52.996;6.278;2022-08-20T13:07:04;2.70;;;1.67;;
51862;SDS011;37900;52.996;6.278;2022-08-20T13:09:30;2.67;;;1.50;;
51862;SDS011;37900;52.996;6.278;2022-08-20T13:11:57;2.70;;;1.38;;
51862;SDS011;37900;52.996;6.278;2022-08-20T13:14:23;3.28;;;1.58;;
51862;SDS011;37900;52.996;6.278;2022-08-20T13:16:53;3.22;;;1.70;;
51862;SDS011;37900;52.996;6.278;2022-08-20T13:19:24;2.58;;;1.15;;
51862;SDS011;37900;52.996;6.278;2022-08-20T13:21:51;2.50;;;1.45;;
51862;SDS011;37900;52.996;6.278;2022-08-20T13:24:17;2.30;;;1.37;;
51862;SDS011;37900;52.996;6.278;2022-08-20T13:26:43;3.00;;;1.65;;
51862;SDS011;37900;52.996;6.278;2022-08-20T13:29:09;5.10;;;2.10;;
51862;SDS011;37900;52.996;6.278;2022-08-20T13:31:35;3.30;;;1.80;;
51862;SDS011;37900;52.996;6.278;2022-08-20T13:34:01;1.83;;;1.70;;
51862;SDS011;37900;52.996;6.278;2022-08-20T13:36:27;2.50;;;1.55;;
51862;SDS011;37900;52.996;6.278;2022-08-20T13:38:53;2.95;;;1.45;;
51862;SDS011;37900;52.996;6.278;2022-08-20T13:41:18;2.42;;;1.50;;
51862;SDS011;37900;52.996;6.278;2022-08-20T13:43:44;3.60;;;1.70;;
51862;SDS011;37900;52.996;6.278;2022-08-20T13:46:10;1.60;;;1.23;;
51862;SDS011;37900;52.996;6.278;2022-08-20T13:48:36;3.83;;;1.75;;
51862;SDS011;37900;52.996;6.278;2022-08-20T13:51:01;3.78;;;1.92;;
51862;SDS011;37900;52.996;6.278;2022-08-20T13:53:27;4.82;;;1.33;;
51862;SDS011;37900;52.996;6.278;2022-08-20T13:55:53;3.30;;;1.20;;
51862;SDS011;37900;52.996;6.278;2022-08-20T13:58:19;2.15;;;1.60;;
51862;SDS011;37900;52.996;6.278;2022-08-20T14:00:46;2.80;;;1.60;;
51862;SDS011;37900;52.996;6.278;2022-08-20T14:03:13;3.33;;;1.40;;
51862;SDS011;37900;52.996;6.278;2022-08-20T14:05:39;2.17;;;1.50;;
51862;SDS011;37900;52.996;6.278;2022-08-20T14:08:10;1.50;;;1.20;;
51862;SDS011;37900;52.996;6.278;2022-08-20T14:10:37;2.25;;;1.50;;
51862;SDS011;37900;52.996;6.278;2022-08-20T14:13:03;2.63;;;1.30;;
51862;SDS011;37900;52.996;6.278;2022-08-20T14:17:57;2.05;;;1.50;;
51862;SDS011;37900;52.996;6.278;2022-08-20T14:20:24;2.50;;;1.38;;
51862;SDS011;37900;52.996;6.278;2022-08-20T14:22:52;2.63;;;1.50;;
51862;SDS011;37900;52.996;6.278;2022-08-20T14:25:18;2.85;;;1.70;;
51862;SDS011;37900;52.996;6.278;2022-08-20T14:27:45;2.83;;;1.40;;
51862;SDS011;37900;52.996;6.278;2022-08-20T14:30:12;3.17;;;1.55;;
51862;SDS011;37900;52.996;6.278;2022-08-20T14:32:39;1.75;;;1.52;;
51862;SDS011;37900;52.996;6.278;2022-08-20T14:35:06;4.15;;;1.70;;
51862;SDS011;37900;52.996;6.278;2022-08-20T14:37:34;2.78;;;1.60;;
51862;SDS011;37900;52.996;6.278;2022-08-20T14:40:03;2.50;;;1.48;;
51862;SDS011;37900;52.996;6.278;2022-08-20T14:42:31;3.10;;;1.60;;
51862;SDS011;37900;52.996;6.278;2022-08-20T14:44:57;3.40;;;1.50;;
51862;SDS011;37900;52.996;6.278;2022-08-20T14:47:26;3.17;;;1.55;;
51862;SDS011;37900;52.996;6.278;2022-08-20T14:49:54;2.88;;;1.52;;
51862;SDS011;37900;52.996;6.278;2022-08-20T14:52:28;2.35;;;1.35;;
51862;SDS011;37900;52.996;6.278;2022-08-20T14:54:54;3.05;;;2.00;;
51862;SDS011;37900;52.996;6.278;2022-08-20T14:57:20;2.20;;;1.35;;
51862;SDS011;37900;52.996;6.278;2022-08-20T14:59:47;2.47;;;1.48;;
51862;SDS011;37900;52.996;6.278;2022-08-20T15:02:15;3.15;;;1.45;;
51862;SDS011;37900;52.996;6.278;2022-08-20T15:04:41;2.45;;;1.60;;
51862;SDS011;37900;52.996;6.278;2022-08-20T15:07:42;3.70;;;1.42;;
51862;SDS011;37900;52.996;6.278;2022-08-20T15:10:05;2.72;;;1.55;;
51862;SDS011;37900;52.996;6.278;2022-08-20T15:12:33;2.65;;;1.48;;
51862;SDS011;37900;52.996;6.278;2022-08-20T15:15:00;2.70;;;1.60;;
51862;SDS011;37900;52.996;6.278;2022-08-20T15:17:27;2.80;;;1.63;;
51862;SDS011;37900;52.996;6.278;2022-08-20T15:19:54;3.65;;;1.58;;
51862;SDS011;37900;52.996;6.278;2022-08-20T15:22:21;2.50;;;1.40;;
51862;SDS011;37900;52.996;6.278;2022-08-20T15:24:48;4.68;;;2.20;;
51862;SDS011;37900;52.996;6.278;2022-08-20T15:27:16;2.30;;;1.25;;
51862;SDS011;37900;52.996;6.278;2022-08-20T15:29:45;2.72;;;1.20;;
51862;SDS011;37900;52.996;6.278;2022-08-20T15:32:11;1.75;;;1.33;;
51862;SDS011;37900;52.996;6.278;2022-08-20T15:34:37;4.50;;;1.90;;